createdAt,value
2022-09-04T00:03:04.208Z,1.10
2022-09-04T00:06:30.187Z,1.20
2022-09-04T00:09:42.223Z,1.40
2022-09-04T00:13:08.204Z,1.60
2022-09-04T00:16:21.224Z,1.25
2022-09-04T00:19:46.221Z,1.40
2022-09-04T00:23:02.233Z,1.27
2022-09-04T00:26:27.341Z,1.50
2022-09-04T00:29:40.241Z,1.30
2022-09-04T00:33:05.244Z,1.30
2022-09-04T00:36:17.332Z,1.40
2022-09-04T00:39:43.324Z,1.27
2022-09-04T00:42:59.297Z,1.13
2022-09-04T00:46:26.413Z,1.30
2022-09-04T00:49:46.288Z,1.33
2022-09-04T00:53:20.351Z,1.17
2022-09-04T00:56:38.295Z,1.27
2022-09-04T01:00:05.334Z,1.40
2022-09-04T01:03:28.342Z,1.23
2022-09-04T01:06:54.360Z,1.75
2022-09-04T01:10:12.399Z,1.60
2022-09-04T01:13:40.357Z,1.63
2022-09-04T01:16:52.430Z,1.90
2022-09-04T01:20:18.397Z,1.40
2022-09-04T01:23:33.410Z,2.00
2022-09-04T01:26:59.396Z,1.53
2022-09-04T01:30:11.432Z,1.60
2022-09-04T01:33:38.430Z,1.40
2022-09-04T01:36:50.489Z,1.90
2022-09-04T01:40:15.458Z,1.30
2022-09-04T01:43:30.500Z,1.13
2022-09-04T01:47:08.564Z,1.83
2022-09-04T01:50:20.503Z,1.30
2022-09-04T01:53:45.506Z,1.70
2022-09-04T01:56:58.513Z,1.37
2022-09-04T02:00:27.527Z,1.60
2022-09-04T02:03:54.551Z,1.30
2022-09-04T02:07:06.560Z,1.30
2022-09-04T02:10:32.552Z,1.70
2022-09-04T02:13:47.560Z,1.70
2022-09-04T02:17:14.553Z,1.50
2022-09-04T02:20:27.581Z,1.20
2022-09-04T02:23:54.593Z,1.50
2022-09-04T02:27:06.593Z,1.40
2022-09-04T02:30:30.648Z,1.60
2022-09-04T02:33:44.615Z,1.40
2022-09-04T02:37:08.657Z,1.30
2022-09-04T02:40:24.675Z,1.40
2022-09-04T02:43:57.655Z,1.70
2022-09-04T02:47:14.742Z,1.50
2022-09-04T02:50:40.667Z,1.43
2022-09-04T02:53:53.687Z,1.60
2022-09-04T02:57:17.687Z,1.73
2022-09-04T03:00:44.757Z,1.10
2022-09-04T03:04:08.748Z,1.65
2022-09-04T03:07:22.713Z,1.30
2022-09-04T03:10:46.732Z,1.50
2022-09-04T03:13:58.746Z,1.60
2022-09-04T03:17:22.763Z,1.70
2022-09-04T03:20:34.832Z,1.60
2022-09-04T03:24:01.797Z,1.70
2022-09-04T03:27:13.779Z,1.30
2022-09-04T03:30:37.832Z,1.60
2022-09-04T03:33:50.847Z,2.00
2022-09-04T03:37:17.799Z,1.50
2022-09-04T03:40:36.812Z,1.60
2022-09-04T03:44:11.911Z,1.83
2022-09-04T03:47:25.814Z,1.80
2022-09-04T03:50:50.862Z,1.50
2022-09-04T03:54:02.876Z,1.50
2022-09-04T03:57:33.887Z,1.73
2022-09-04T04:00:45.947Z,1.70
2022-09-04T04:04:12.986Z,1.80
2022-09-04T04:07:25.151Z,1.80
2022-09-04T04:10:49.918Z,1.90
2022-09-04T04:14:07.970Z,1.70
2022-09-04T04:17:32.958Z,1.80
2022-09-04T04:20:46.967Z,1.95
2022-09-04T04:24:21.981Z,1.87
2022-09-04T04:27:39.026Z,1.90
2022-09-04T04:31:06.084Z,2.20
2022-09-04T04:34:18.070Z,1.80
2022-09-04T04:37:43.009Z,1.63
2022-09-04T04:40:57.028Z,2.00
2022-09-04T04:44:23.071Z,2.10
2022-09-04T04:47:24.209Z,2.20
2022-09-04T04:50:49.058Z,2.13
2022-09-04T04:54:01.073Z,2.00
2022-09-04T04:57:29.059Z,1.90
2022-09-04T05:00:41.076Z,1.70
2022-09-04T05:04:09.081Z,1.87
2022-09-04T05:07:25.101Z,2.30
2022-09-04T05:10:49.077Z,1.70
2022-09-04T05:14:01.145Z,2.17
2022-09-04T05:17:26.192Z,2.03
2022-09-04T05:20:44.166Z,2.30
2022-09-04T05:24:10.149Z,1.95
2022-09-04T05:27:22.162Z,1.53
2022-09-04T05:30:46.156Z,2.10
2022-09-04T05:33:59.182Z,2.10
2022-09-04T05:37:25.195Z,2.03
2022-09-04T05:40:39.215Z,2.30
2022-09-04T05:44:09.190Z,1.90
2022-09-04T05:47:38.233Z,2.03
2022-09-04T05:51:13.360Z,1.90
2022-09-04T05:54:43.345Z,2.30
2022-09-04T05:58:12.346Z,1.97
2022-09-04T06:01:26.309Z,2.45
2022-09-04T06:05:00.283Z,2.10
2022-09-04T06:08:16.402Z,2.20
2022-09-04T06:11:47.314Z,1.97
2022-09-04T06:15:02.280Z,1.97
2022-09-04T06:18:39.335Z,2.10
2022-09-04T06:22:00.294Z,2.20
2022-09-04T06:25:34.393Z,2.47
2022-09-04T06:29:02.411Z,2.17
2022-09-04T06:32:43.343Z,1.73
2022-09-04T06:36:05.355Z,2.00
2022-09-04T06:39:35.418Z,1.70
2022-09-04T06:43:07.378Z,2.20
2022-09-04T06:46:33.453Z,1.90
2022-09-04T06:49:47.397Z,1.93
2022-09-04T06:53:13.424Z,1.95
2022-09-04T06:56:32.423Z,2.40
2022-09-04T07:00:08.512Z,1.87
2022-09-04T07:03:25.455Z,2.23
2022-09-04T07:06:55.462Z,2.20
2022-09-04T07:10:10.459Z,2.00
2022-09-04T07:13:54.514Z,1.50
2022-09-04T07:17:06.578Z,1.80
2022-09-04T07:20:38.498Z,2.00
2022-09-04T07:23:55.806Z,1.80
2022-09-04T07:27:18.502Z,2.37
2022-09-04T07:30:31.592Z,2.50
2022-09-04T07:33:57.544Z,1.90
2022-09-04T07:37:10.571Z,2.17
2022-09-04T07:40:38.230Z,1.97
2022-09-04T07:43:54.472Z,1.60
2022-09-04T07:47:14.595Z,2.10
2022-09-04T07:54:04.934Z,2.00
2022-09-04T07:57:30.632Z,2.07
2022-09-04T08:00:54.630Z,1.97
2022-09-04T08:04:22.660Z,1.80
2022-09-04T08:07:36.648Z,1.80
2022-09-04T08:11:02.653Z,1.80
2022-09-04T08:14:35.690Z,1.75
2022-09-04T08:18:04.687Z,2.00
2022-09-04T08:21:17.684Z,1.40
2022-09-04T08:24:43.738Z,1.40
2022-09-04T08:28:00.730Z,1.60
2022-09-04T08:31:26.750Z,1.50
2022-09-04T08:34:51.732Z,1.50
2022-09-04T08:38:24.837Z,1.30
2022-09-04T08:41:43.818Z,1.80
2022-09-04T08:45:15.772Z,1.70
2022-09-04T08:48:34.792Z,1.63
2022-09-04T08:52:13.812Z,1.60
2022-09-04T08:55:36.832Z,2.10
2022-09-04T08:59:07.822Z,1.60
2022-09-04T09:02:23.887Z,1.63
2022-09-04T09:05:53.824Z,1.37
2022-09-04T09:09:14.825Z,1.50
2022-09-04T09:12:45.851Z,1.30
2022-09-04T09:16:06.861Z,1.40
2022-09-04T09:19:35.863Z,1.40
2022-09-04T09:22:51.891Z,1.50
2022-09-04T09:26:20.883Z,1.40
2022-09-04T09:29:39.914Z,1.40
2022-09-04T09:33:11.936Z,1.30
2022-09-04T09:36:28.949Z,1.60
2022-09-04T09:39:56.007Z,1.53
2022-09-04T09:46:19.021Z,1.37
2022-09-04T09:49:54.989Z,1.50
2022-09-04T09:53:17.013Z,1.53
2022-09-04T09:56:29.978Z,1.60
2022-09-04T09:59:54.988Z,1.40
2022-09-04T10:03:17.024Z,1.90
2022-09-04T10:06:50.047Z,1.53
2022-09-04T10:10:27.013Z,1.20
2022-09-04T10:13:55.090Z,1.60
2022-09-04T10:17:19.068Z,1.70
2022-09-04T10:20:50.121Z,1.33
2022-09-04T10:24:12.069Z,1.27
2022-09-04T10:27:46.058Z,1.10
2022-09-04T10:31:00.171Z,1.20
2022-09-04T10:34:26.118Z,1.40
2022-09-04T10:37:44.127Z,1.60
2022-09-04T10:41:10.123Z,1.30
2022-09-04T10:44:28.154Z,1.23
2022-09-04T10:48:02.128Z,1.47
2022-09-04T10:51:23.177Z,1.20
2022-09-04T10:54:51.162Z,1.50
2022-09-04T10:58:16.157Z,1.30
2022-09-04T11:01:49.186Z,1.30
2022-09-04T11:05:07.223Z,1.30
2022-09-04T11:08:45.189Z,1.50
2022-09-04T11:12:09.300Z,1.50
2022-09-04T11:15:45.203Z,1.25
2022-09-04T11:19:01.245Z,1.60
2022-09-04T11:22:41.212Z,1.70
2022-09-04T11:26:02.238Z,1.30
2022-09-04T12:41:06.457Z,1.20
2022-09-04T12:44:23.640Z,1.50
2022-09-04T12:54:13.577Z,1.40
2022-09-04T12:57:28.500Z,1.50
2022-09-04T13:00:53.673Z,1.00
2022-09-04T13:04:06.520Z,1.30
2022-09-04T13:07:33.598Z,1.20
2022-09-04T13:10:46.618Z,1.37
2022-09-04T13:14:12.575Z,1.53
2022-09-04T13:17:25.587Z,1.36
2022-09-04T13:20:50.573Z,1.53
2022-09-04T13:24:11.591Z,1.63
2022-09-04T13:27:40.647Z,1.30
2022-09-04T13:30:53.640Z,1.30
2022-09-04T13:34:21.647Z,1.20
2022-09-04T13:37:38.618Z,1.25
2022-09-04T13:41:11.662Z,1.30
2022-09-04T13:44:26.642Z,1.37
2022-09-04T13:47:55.783Z,1.30
2022-09-04T13:51:13.638Z,1.33
2022-09-04T13:54:31.706Z,1.40
2022-09-04T13:57:43.690Z,1.42
2022-09-04T14:01:08.774Z,1.42
2022-09-04T14:04:36.669Z,2.00
2022-09-04T14:07:51.760Z,1.30
2022-09-04T14:11:20.736Z,1.30
2022-09-04T14:14:39.721Z,1.45
2022-09-04T14:18:07.753Z,1.40
2022-09-04T14:21:21.761Z,1.30
2022-09-04T14:24:45.884Z,1.20
2022-09-04T14:27:57.809Z,1.30
2022-09-04T14:31:24.250Z,1.33
2022-09-04T14:34:35.817Z,1.20
2022-09-04T14:38:04.844Z,1.35
2022-09-04T14:41:18.826Z,1.10
2022-09-04T14:44:45.808Z,1.57
2022-09-04T14:47:59.840Z,1.30
2022-09-04T14:51:23.838Z,1.00
2022-09-04T14:54:39.851Z,1.30
2022-09-04T14:58:07.867Z,1.12
2022-09-04T15:01:20.991Z,1.35
2022-09-04T15:04:44.905Z,1.50
2022-09-04T15:07:59.928Z,1.30
2022-09-04T15:11:30.965Z,1.33
2022-09-04T15:14:41.943Z,1.33
2022-09-04T15:18:10.742Z,1.20
2022-09-04T15:21:23.945Z,1.02
2022-09-04T15:24:49.012Z,1.30
2022-09-04T15:28:03.949Z,1.40
2022-09-04T15:31:29.089Z,1.40
2022-09-04T15:34:43.962Z,1.37
2022-09-04T15:38:07.975Z,1.20
2022-09-04T15:41:21.013Z,1.77
2022-09-04T15:44:50.014Z,1.30
2022-09-04T15:48:06.984Z,1.30
2022-09-04T15:51:38.010Z,1.60
2022-09-04T15:54:51.030Z,1.73
2022-09-04T15:58:18.036Z,1.52
2022-09-04T16:01:35.125Z,1.40
2022-09-04T16:05:00.074Z,1.50
2022-09-04T16:14:27.087Z,1.42
2022-09-04T16:17:53.101Z,1.40
2022-09-04T16:21:05.120Z,1.80
2022-09-04T16:33:45.133Z,1.30
2022-09-04T16:40:18.274Z,1.77
2022-09-04T17:43:22.809Z,1.80
2022-09-04T17:46:32.474Z,1.90
2022-09-04T17:49:44.361Z,1.90
2022-09-04T17:53:33.455Z,2.00
2022-09-04T17:56:31.408Z,2.15
2022-09-04T17:59:58.413Z,2.00
2022-09-04T18:03:26.414Z,1.80
2022-09-04T18:06:39.449Z,1.90
2022-09-04T18:10:03.416Z,1.40
2022-09-04T18:13:37.070Z,1.90
2022-09-04T18:16:53.164Z,1.70
2022-09-04T18:19:58.472Z,1.70
2022-09-04T18:23:24.465Z,1.80
2022-09-04T18:26:41.222Z,1.90
2022-09-04T18:37:07.099Z,2.07
2022-09-04T18:37:11.621Z,1.50
2022-09-04T18:37:12.401Z,1.47
2022-09-04T18:39:59.583Z,1.80
2022-09-04T18:50:29.061Z,1.50
2022-09-04T18:50:31.178Z,1.63
2022-09-04T18:50:39.984Z,1.70
2022-09-04T18:53:13.585Z,1.97
2022-09-04T18:56:40.544Z,1.67
2022-09-04T18:59:58.361Z,1.53
2022-09-04T19:03:17.587Z,1.30
2022-09-04T19:06:35.622Z,1.73
2022-09-04T19:10:05.672Z,1.60
2022-09-04T19:13:18.620Z,1.57
2022-09-04T19:16:42.694Z,1.60
2022-09-04T19:19:54.630Z,1.67
2022-09-04T19:23:20.638Z,1.53
2022-09-04T19:26:32.645Z,1.40
2022-09-04T19:30:17.636Z,1.50
2022-09-04T19:33:18.696Z,1.77
2022-09-04T19:36:44.705Z,1.67
2022-09-04T19:46:04.310Z,1.70
2022-09-04T19:46:18.622Z,1.50
2022-09-04T19:46:44.604Z,1.83
2022-09-04T19:53:23.298Z,1.70
2022-09-04T19:53:38.668Z,1.70
2022-09-04T19:57:31.264Z,1.40
2022-09-04T20:00:31.036Z,1.50
2022-09-04T20:03:29.589Z,1.70
2022-09-04T20:06:43.790Z,1.40
2022-09-04T20:10:07.813Z,1.60
2022-09-04T20:13:21.853Z,1.50
2022-09-04T20:16:48.643Z,2.00
2022-09-04T20:19:58.829Z,1.80
2022-09-04T20:23:34.229Z,1.73
2022-09-04T20:26:34.874Z,1.77
2022-09-04T20:30:04.894Z,1.70
2022-09-04T20:33:18.105Z,1.87
2022-09-04T20:36:41.896Z,1.47
2022-09-04T20:39:56.944Z,1.60
2022-09-04T20:43:29.941Z,1.60
2022-09-04T20:52:44.347Z,1.70
2022-09-04T20:52:49.300Z,1.50
2022-09-04T20:53:23.150Z,1.80
2022-09-04T20:58:46.492Z,1.77
2022-09-04T21:03:09.147Z,1.70
2022-09-04T21:03:35.156Z,1.80
2022-09-04T21:06:44.989Z,1.77
2022-09-04T21:10:12.033Z,1.63
2022-09-04T21:13:24.084Z,1.77
2022-09-04T21:16:53.014Z,1.70
2022-09-04T21:20:20.052Z,1.63
2022-09-04T21:23:56.597Z,1.73
2022-09-04T21:27:15.112Z,1.97
2022-09-04T21:30:40.025Z,1.80
2022-09-04T21:33:54.024Z,1.70
2022-09-04T21:37:20.058Z,2.00
2022-09-04T21:40:51.727Z,1.50
2022-09-04T21:44:24.100Z,1.90
2022-09-04T21:47:45.063Z,1.80
2022-09-04T21:51:25.146Z,1.97
2022-09-04T21:54:37.887Z,1.80
2022-09-04T22:02:31.969Z,1.90
2022-09-04T22:02:37.798Z,2.13
2022-09-04T22:04:45.293Z,1.93
2022-09-04T22:11:19.446Z,1.70
2022-09-04T22:13:40.088Z,1.90
2022-09-04T22:14:38.188Z,2.20
2022-09-04T22:18:18.194Z,1.90
2022-09-04T22:21:33.212Z,1.70
2022-09-04T22:25:16.199Z,1.90
2022-09-04T22:28:34.236Z,2.10
2022-09-04T22:32:06.233Z,1.87
2022-09-04T22:35:36.034Z,1.87
2022-09-04T22:38:59.241Z,2.03
2022-09-04T22:42:20.517Z,1.67
2022-09-04T22:46:03.262Z,2.20
2022-09-04T22:49:22.307Z,1.93
2022-09-04T22:52:52.345Z,1.90
2022-09-04T22:56:24.619Z,2.00
2022-09-04T22:59:42.486Z,2.05
2022-09-04T23:03:09.862Z,2.13
2022-09-04T23:09:17.054Z,2.20
2022-09-04T23:13:59.328Z,2.10
2022-09-04T23:14:01.607Z,2.23
2022-09-04T23:16:51.382Z,2.20
2022-09-04T23:26:35.880Z,1.80
2022-09-04T23:26:47.170Z,2.20
2022-09-04T23:27:10.957Z,1.90
2022-09-04T23:30:26.980Z,2.10
2022-09-04T23:33:59.434Z,2.23
2022-09-04T23:37:18.461Z,2.03
2022-09-04T23:40:44.431Z,2.13
2022-09-04T23:44:11.429Z,2.13
2022-09-04T23:47:49.742Z,2.03
2022-09-04T23:51:04.482Z,2.17
2022-09-04T23:54:32.512Z,1.97
2022-09-04T23:57:48.475Z,2.00
